sensor_id;sensor_type;location;lat;lon;timestamp;temperature;humidity
10722;DHT22;5412;59.450;18.124;2022-08-01T00:01:16;18.10;99.90
10722;DHT22;5412;59.450;18.124;2022-08-01T00:03:42;18.10;99.90
10722;DHT22;5412;59.450;18.124;2022-08-01T00:06:07;18.10;99.90
10722;DHT22;5412;59.450;18.124;2022-08-01T00:08:33;18.10;99.90
10722;DHT22;5412;59.450;18.124;2022-08-01T00:10:59;18.00;99.90
10722;DHT22;5412;59.450;18.124;2022-08-01T00:13:24;17.90;99.90
10722;DHT22;5412;59.450;18.124;2022-08-01T00:15:50;18.00;99.90
10722;DHT22;5412;59.450;18.124;2022-08-01T00:18:15;18.00;99.90
10722;DHT22;5412;59.450;18.124;2022-08-01T00:20:41;18.00;99.90
10722;DHT22;5412;59.450;18.124;2022-08-01T00:23:06;18.00;99.90
10722;DHT22;5412;59.450;18.124;2022-08-01T00:25:32;18.00;99.90
10722;DHT22;5412;59.450;18.124;2022-08-01T00:27:58;18.00;99.90
10722;DHT22;5412;59.450;18.124;2022-08-01T00:30:23;18.00;99.90
10722;DHT22;5412;59.450;18.124;2022-08-01T00:32:49;18.00;99.90
10722;DHT22;5412;59.450;18.124;2022-08-01T00:35:14;18.00;99.90
10722;DHT22;5412;59.450;18.124;2022-08-01T00:37:40;18.00;99.90
10722;DHT22;5412;59.450;18.124;2022-08-01T00:40:07;18.00;99.90
10722;DHT22;5412;59.450;18.124;2022-08-01T00:42:32;18.00;99.90
10722;DHT22;5412;59.450;18.124;2022-08-01T00:44:58;18.00;99.90
10722;DHT22;5412;59.450;18.124;2022-08-01T00:47:24;18.00;99.90
10722;DHT22;5412;59.450;18.124;2022-08-01T00:49:50;17.90;99.90
10722;DHT22;5412;59.450;18.124;2022-08-01T00:52:16;17.90;99.90
10722;DHT22;5412;59.450;18.124;2022-08-01T00:54:42;17.90;99.90
10722;DHT22;5412;59.450;18.124;2022-08-01T00:57:08;17.80;99.90
10722;DHT22;5412;59.450;18.124;2022-08-01T00:59:34;17.80;99.90
10722;DHT22;5412;59.450;18.124;2022-08-01T01:02:00;17.80;99.90
10722;DHT22;5412;59.450;18.124;2022-08-01T01:04:25;17.80;99.90
10722;DHT22;5412;59.450;18.124;2022-08-01T01:07:02;17.80;99.90
10722;DHT22;5412;59.450;18.124;2022-08-01T01:17:32;17.80;99.90
10722;DHT22;5412;59.450;18.124;2022-08-01T01:19:59;17.80;99.90
10722;DHT22;5412;59.450;18.124;2022-08-01T01:22:43;17.80;99.90
10722;DHT22;5412;59.450;18.124;2022-08-01T01:25:54;17.80;99.90
10722;DHT22;5412;59.450;18.124;2022-08-01T01:31:16;17.70;99.90
10722;DHT22;5412;59.450;18.124;2022-08-01T01:33:45;17.70;99.90
10722;DHT22;5412;59.450;18.124;2022-08-01T01:36:13;17.70;99.90
10722;DHT22;5412;59.450;18.124;2022-08-01T01:38:43;17.60;99.90
10722;DHT22;5412;59.450;18.124;2022-08-01T01:41:11;17.60;99.90
10722;DHT22;5412;59.450;18.124;2022-08-01T01:43:37;17.60;99.90
10722;DHT22;5412;59.450;18.124;2022-08-01T01:46:05;17.60;99.90
10722;DHT22;5412;59.450;18.124;2022-08-01T01:48:33;17.60;99.90
10722;DHT22;5412;59.450;18.124;2022-08-01T01:51:00;17.60;99.90
10722;DHT22;5412;59.450;18.124;2022-08-01T01:53:28;17.60;99.90
10722;DHT22;5412;59.450;18.124;2022-08-01T01:55:55;17.60;99.90
10722;DHT22;5412;59.450;18.124;2022-08-01T01:58:24;17.70;99.90
10722;DHT22;5412;59.450;18.124;2022-08-01T02:00:52;17.60;99.90
10722;DHT22;5412;59.450;18.124;2022-08-01T02:03:19;17.60;99.90
10722;DHT22;5412;59.450;18.124;2022-08-01T02:05:46;17.60;99.90
10722;DHT22;5412;59.450;18.124;2022-08-01T02:08:15;17.60;99.90
10722;DHT22;5412;59.450;18.124;2022-08-01T02:10:42;17.60;99.90
10722;DHT22;5412;59.450;18.124;2022-08-01T02:13:34;17.60;99.90
10722;DHT22;5412;59.450;18.124;2022-08-01T02:16:02;17.60;99.90
10722;DHT22;5412;59.450;18.124;2022-08-01T02:18:28;17.60;99.90
10722;DHT22;5412;59.450;18.124;2022-08-01T02:20:54;18.60;99.90
10722;DHT22;5412;59.450;18.124;2022-08-01T02:23:23;17.60;99.90
10722;DHT22;5412;59.450;18.124;2022-08-01T02:25:50;17.70;99.90
10722;DHT22;5412;59.450;18.124;2022-08-01T02:28:22;17.70;99.90
10722;DHT22;5412;59.450;18.124;2022-08-01T02:30:54;17.70;99.90
10722;DHT22;5412;59.450;18.124;2022-08-01T02:33:24;17.70;99.90
10722;DHT22;5412;59.450;18.124;2022-08-01T02:35:57;17.70;99.90
10722;DHT22;5412;59.450;18.124;2022-08-01T02:38:25;17.70;99.90
10722;DHT22;5412;59.450;18.124;2022-08-01T02:40:53;17.70;99.90
10722;DHT22;5412;59.450;18.124;2022-08-01T02:43:21;17.70;99.90
10722;DHT22;5412;59.450;18.124;2022-08-01T02:45:52;17.70;99.90
10722;DHT22;5412;59.450;18.124;2022-08-01T02:48:19;17.70;99.90
10722;DHT22;5412;59.450;18.124;2022-08-01T02:50:48;17.70;99.90
10722;DHT22;5412;59.450;18.124;2022-08-01T02:53:17;17.70;99.90
10722;DHT22;5412;59.450;18.124;2022-08-01T02:55:45;16.90;99.90
10722;DHT22;5412;59.450;18.124;2022-08-01T02:58:15;17.70;99.90
10722;DHT22;5412;59.450;18.124;2022-08-01T03:00:42;17.70;99.90
10722;DHT22;5412;59.450;18.124;2022-08-01T03:03:09;17.80;99.90
10722;DHT22;5412;59.450;18.124;2022-08-01T03:05:35;17.80;99.90
10722;DHT22;5412;59.450;18.124;2022-08-01T03:08:02;17.80;99.90
10722;DHT22;5412;59.450;18.124;2022-08-01T03:10:30;17.80;99.90
10722;DHT22;5412;59.450;18.124;2022-08-01T03:12:57;17.80;99.90
10722;DHT22;5412;59.450;18.124;2022-08-01T03:15:26;17.80;99.90
10722;DHT22;5412;59.450;18.124;2022-08-01T03:17:54;17.80;99.90
10722;DHT22;5412;59.450;18.124;2022-08-01T03:20:22;17.80;99.90
10722;DHT22;5412;59.450;18.124;2022-08-01T03:22:50;17.90;99.90
10722;DHT22;5412;59.450;18.124;2022-08-01T03:25:18;17.90;99.90
10722;DHT22;5412;59.450;18.124;2022-08-01T03:27:50;17.80;99.90
10722;DHT22;5412;59.450;18.124;2022-08-01T03:30:17;17.90;99.90
10722;DHT22;5412;59.450;18.124;2022-08-01T03:32:42;17.90;99.90
10722;DHT22;5412;59.450;18.124;2022-08-01T03:35:08;17.90;99.90
10722;DHT22;5412;59.450;18.124;2022-08-01T03:37:38;17.90;99.90
10722;DHT22;5412;59.450;18.124;2022-08-01T03:40:10;17.90;99.90
10722;DHT22;5412;59.450;18.124;2022-08-01T03:42:41;18.00;99.90
10722;DHT22;5412;59.450;18.124;2022-08-01T03:45:11;18.00;99.90
10722;DHT22;5412;59.450;18.124;2022-08-01T03:47:43;18.00;99.90
10722;DHT22;5412;59.450;18.124;2022-08-01T03:50:10;18.00;99.90
10722;DHT22;5412;59.450;18.124;2022-08-01T03:52:39;18.00;99.90
10722;DHT22;5412;59.450;18.124;2022-08-01T03:55:06;18.00;99.90
10722;DHT22;5412;59.450;18.124;2022-08-01T03:57:33;18.00;99.90
10722;DHT22;5412;59.450;18.124;2022-08-01T04:00:00;18.00;99.90
10722;DHT22;5412;59.450;18.124;2022-08-01T04:02:27;18.10;99.90
10722;DHT22;5412;59.450;18.124;2022-08-01T04:04:53;18.00;99.90
10722;DHT22;5412;59.450;18.124;2022-08-01T04:07:22;18.00;99.90
10722;DHT22;5412;59.450;18.124;2022-08-01T04:09:48;18.00;99.90
10722;DHT22;5412;59.450;18.124;2022-08-01T04:12:14;18.10;99.90
10722;DHT22;5412;59.450;18.124;2022-08-01T04:14:39;18.10;99.90
10722;DHT22;5412;59.450;18.124;2022-08-01T04:17:05;18.20;99.90
10722;DHT22;5412;59.450;18.124;2022-08-01T04:19:30;18.20;99.90
10722;DHT22;5412;59.450;18.124;2022-08-01T04:21:56;18.20;99.90
10722;DHT22;5412;59.450;18.124;2022-08-01T04:24:22;18.30;99.90
10722;DHT22;5412;59.450;18.124;2022-08-01T04:26:50;18.40;99.90
10722;DHT22;5412;59.450;18.124;2022-08-01T04:29:17;18.30;99.90
10722;DHT22;5412;59.450;18.124;2022-08-01T04:31:47;18.40;99.90
10722;DHT22;5412;59.450;18.124;2022-08-01T04:34:16;18.40;99.90
10722;DHT22;5412;59.450;18.124;2022-08-01T04:36:43;18.40;99.90
10722;DHT22;5412;59.450;18.124;2022-08-01T04:39:09;18.40;99.90
10722;DHT22;5412;59.450;18.124;2022-08-01T04:41:36;18.50;99.90
10722;DHT22;5412;59.450;18.124;2022-08-01T04:44:02;18.60;99.90
10722;DHT22;5412;59.450;18.124;2022-08-01T04:46:29;18.60;99.90
10722;DHT22;5412;59.450;18.124;2022-08-01T04:48:55;18.70;99.90
10722;DHT22;5412;59.450;18.124;2022-08-01T04:51:21;18.70;99.90
10722;DHT22;5412;59.450;18.124;2022-08-01T04:53:48;18.80;99.90
10722;DHT22;5412;59.450;18.124;2022-08-01T04:56:14;18.90;99.90
10722;DHT22;5412;59.450;18.124;2022-08-01T04:58:40;18.90;99.90
10722;DHT22;5412;59.450;18.124;2022-08-01T05:01:07;19.00;99.90
10722;DHT22;5412;59.450;18.124;2022-08-01T05:03:33;19.20;99.90
10722;DHT22;5412;59.450;18.124;2022-08-01T05:05:59;19.30;99.90
10722;DHT22;5412;59.450;18.124;2022-08-01T05:08:24;19.30;99.90
10722;DHT22;5412;59.450;18.124;2022-08-01T05:10:50;19.40;99.90
10722;DHT22;5412;59.450;18.124;2022-08-01T05:13:15;19.50;99.90
10722;DHT22;5412;59.450;18.124;2022-08-01T05:15:41;19.40;99.90
10722;DHT22;5412;59.450;18.124;2022-08-01T05:18:07;19.40;99.90
10722;DHT22;5412;59.450;18.124;2022-08-01T05:20:32;19.40;99.90
10722;DHT22;5412;59.450;18.124;2022-08-01T05:22:58;19.50;99.90
10722;DHT22;5412;59.450;18.124;2022-08-01T05:25:23;19.40;99.90
10722;DHT22;5412;59.450;18.124;2022-08-01T05:27:49;19.50;99.90
10722;DHT22;5412;59.450;18.124;2022-08-01T05:30:15;19.50;99.90
10722;DHT22;5412;59.450;18.124;2022-08-01T05:32:41;19.60;99.90
10722;DHT22;5412;59.450;18.124;2022-08-01T05:35:07;19.60;99.90
10722;DHT22;5412;59.450;18.124;2022-08-01T05:37:33;19.60;99.90
10722;DHT22;5412;59.450;18.124;2022-08-01T05:39:59;19.60;99.90
10722;DHT22;5412;59.450;18.124;2022-08-01T05:42:25;19.70;99.90
10722;DHT22;5412;59.450;18.124;2022-08-01T05:44:50;20.50;99.90
10722;DHT22;5412;59.450;18.124;2022-08-01T05:47:17;19.90;99.90
10722;DHT22;5412;59.450;18.124;2022-08-01T05:49:43;20.00;99.90
10722;DHT22;5412;59.450;18.124;2022-08-01T05:52:09;20.00;99.90
10722;DHT22;5412;59.450;18.124;2022-08-01T05:54:35;20.00;99.90
10722;DHT22;5412;59.450;18.124;2022-08-01T05:57:00;20.10;99.90
10722;DHT22;5412;59.450;18.124;2022-08-01T05:59:27;20.20;99.90
10722;DHT22;5412;59.450;18.124;2022-08-01T06:01:53;20.30;99.90
10722;DHT22;5412;59.450;18.124;2022-08-01T06:04:19;20.40;99.90
10722;DHT22;5412;59.450;18.124;2022-08-01T06:06:45;20.50;99.90
10722;DHT22;5412;59.450;18.124;2022-08-01T06:09:10;20.50;99.90
10722;DHT22;5412;59.450;18.124;2022-08-01T06:11:36;20.50;99.90
10722;DHT22;5412;59.450;18.124;2022-08-01T06:14:01;20.60;99.90
10722;DHT22;5412;59.450;18.124;2022-08-01T06:16:27;20.60;99.90
10722;DHT22;5412;59.450;18.124;2022-08-01T06:18:53;20.80;99.90
10722;DHT22;5412;59.450;18.124;2022-08-01T06:21:19;20.80;99.90
10722;DHT22;5412;59.450;18.124;2022-08-01T06:23:44;20.80;99.90
10722;DHT22;5412;59.450;18.124;2022-08-01T06:26:10;20.90;99.90
10722;DHT22;5412;59.450;18.124;2022-08-01T06:28:36;20.90;99.90
10722;DHT22;5412;59.450;18.124;2022-08-01T06:31:02;21.00;99.90
10722;DHT22;5412;59.450;18.124;2022-08-01T06:33:28;21.10;99.90
10722;DHT22;5412;59.450;18.124;2022-08-01T06:35:54;21.20;99.90
10722;DHT22;5412;59.450;18.124;2022-08-01T06:38:19;21.20;99.90
10722;DHT22;5412;59.450;18.124;2022-08-01T06:40:45;21.20;99.90
10722;DHT22;5412;59.450;18.124;2022-08-01T06:43:11;21.30;99.90
10722;DHT22;5412;59.450;18.124;2022-08-01T06:45:40;21.30;99.90
10722;DHT22;5412;59.450;18.124;2022-08-01T06:48:05;21.50;99.90
10722;DHT22;5412;59.450;18.124;2022-08-01T06:50:32;21.60;99.90
10722;DHT22;5412;59.450;18.124;2022-08-01T06:52:57;21.60;99.90
10722;DHT22;5412;59.450;18.124;2022-08-01T06:55:23;21.70;99.90
10722;DHT22;5412;59.450;18.124;2022-08-01T06:57:50;21.90;99.90
10722;DHT22;5412;59.450;18.124;2022-08-01T07:00:17;22.10;99.90
10722;DHT22;5412;59.450;18.124;2022-08-01T07:02:46;22.30;99.90
10722;DHT22;5412;59.450;18.124;2022-08-01T07:05:12;22.30;99.90
10722;DHT22;5412;59.450;18.124;2022-08-01T07:07:37;22.30;99.90
10722;DHT22;5412;59.450;18.124;2022-08-01T07:10:03;22.10;99.90
10722;DHT22;5412;59.450;18.124;2022-08-01T07:12:29;22.00;99.90
10722;DHT22;5412;59.450;18.124;2022-08-01T07:14:55;22.00;99.90
10722;DHT22;5412;59.450;18.124;2022-08-01T07:17:20;22.00;99.90
10722;DHT22;5412;59.450;18.124;2022-08-01T07:19:47;22.00;99.90
10722;DHT22;5412;59.450;18.124;2022-08-01T07:22:13;21.90;99.90
10722;DHT22;5412;59.450;18.124;2022-08-01T07:24:39;22.00;99.90
10722;DHT22;5412;59.450;18.124;2022-08-01T07:27:05;22.10;99.90
10722;DHT22;5412;59.450;18.124;2022-08-01T07:29:31;22.10;99.90
10722;DHT22;5412;59.450;18.124;2022-08-01T07:31:58;22.00;99.90
10722;DHT22;5412;59.450;18.124;2022-08-01T07:34:24;22.10;99.90
10722;DHT22;5412;59.450;18.124;2022-08-01T07:36:51;22.10;99.90
10722;DHT22;5412;59.450;18.124;2022-08-01T07:39:17;22.20;99.90
10722;DHT22;5412;59.450;18.124;2022-08-01T07:41:42;22.20;99.90
10722;DHT22;5412;59.450;18.124;2022-08-01T07:44:08;22.30;99.90
10722;DHT22;5412;59.450;18.124;2022-08-01T07:46:34;22.30;99.90
10722;DHT22;5412;59.450;18.124;2022-08-01T07:49:00;22.40;99.90
10722;DHT22;5412;59.450;18.124;2022-08-01T07:51:25;22.40;99.90
10722;DHT22;5412;59.450;18.124;2022-08-01T07:53:51;22.50;99.90
10722;DHT22;5412;59.450;18.124;2022-08-01T07:56:16;22.50;99.90
10722;DHT22;5412;59.450;18.124;2022-08-01T07:58:42;22.50;99.90
10722;DHT22;5412;59.450;18.124;2022-08-01T08:01:08;22.60;99.90
10722;DHT22;5412;59.450;18.124;2022-08-01T08:03:33;22.80;99.90
10722;DHT22;5412;59.450;18.124;2022-08-01T08:05:59;22.90;99.90
10722;DHT22;5412;59.450;18.124;2022-08-01T08:08:25;23.10;99.90
10722;DHT22;5412;59.450;18.124;2022-08-01T08:10:50;23.20;99.90
10722;DHT22;5412;59.450;18.124;2022-08-01T08:13:16;23.20;99.90
10722;DHT22;5412;59.450;18.124;2022-08-01T08:15:42;23.20;99.90
10722;DHT22;5412;59.450;18.124;2022-08-01T08:18:07;22.80;99.90
10722;DHT22;5412;59.450;18.124;2022-08-01T08:20:33;23.50;99.90
10722;DHT22;5412;59.450;18.124;2022-08-01T08:22:59;23.50;99.90
10722;DHT22;5412;59.450;18.124;2022-08-01T08:25:25;23.40;99.90
10722;DHT22;5412;59.450;18.124;2022-08-01T08:27:51;23.20;99.90
10722;DHT22;5412;59.450;18.124;2022-08-01T08:30:17;23.30;99.90
10722;DHT22;5412;59.450;18.124;2022-08-01T08:32:43;23.20;99.90
10722;DHT22;5412;59.450;18.124;2022-08-01T08:35:11;23.20;99.90
10722;DHT22;5412;59.450;18.124;2022-08-01T08:37:38;23.20;99.90
10722;DHT22;5412;59.450;18.124;2022-08-01T08:40:04;23.10;99.90
10722;DHT22;5412;59.450;18.124;2022-08-01T08:42:30;23.10;99.90
10722;DHT22;5412;59.450;18.124;2022-08-01T08:44:56;23.20;99.90
10722;DHT22;5412;59.450;18.124;2022-08-01T08:47:24;23.00;99.90
10722;DHT22;5412;59.450;18.124;2022-08-01T08:49:52;23.10;99.90
10722;DHT22;5412;59.450;18.124;2022-08-01T08:52:22;22.90;99.90
10722;DHT22;5412;59.450;18.124;2022-08-01T08:54:49;23.20;99.90
10722;DHT22;5412;59.450;18.124;2022-08-01T08:57:15;23.50;99.90
10722;DHT22;5412;59.450;18.124;2022-08-01T08:59:43;23.70;99.90
10722;DHT22;5412;59.450;18.124;2022-08-01T09:02:09;23.70;99.90
10722;DHT22;5412;59.450;18.124;2022-08-01T09:04:36;23.90;99.90
10722;DHT22;5412;59.450;18.124;2022-08-01T09:07:04;23.90;99.90
10722;DHT22;5412;59.450;18.124;2022-08-01T09:09:30;24.00;99.90
10722;DHT22;5412;59.450;18.124;2022-08-01T09:11:56;24.30;99.90
10722;DHT22;5412;59.450;18.124;2022-08-01T09:14:22;24.40;99.90
10722;DHT22;5412;59.450;18.124;2022-08-01T09:17:06;24.50;99.90
10722;DHT22;5412;59.450;18.124;2022-08-01T09:19:47;24.40;99.90
10722;DHT22;5412;59.450;18.124;2022-08-01T09:22:15;24.60;99.90
10722;DHT22;5412;59.450;18.124;2022-08-01T09:25:06;24.50;99.90
10722;DHT22;5412;59.450;18.124;2022-08-01T09:27:33;24.50;99.90
10722;DHT22;5412;59.450;18.124;2022-08-01T09:30:16;24.30;99.90
10722;DHT22;5412;59.450;18.124;2022-08-01T09:35:26;24.40;99.90
10722;DHT22;5412;59.450;18.124;2022-08-01T09:37:54;24.50;99.90
10722;DHT22;5412;59.450;18.124;2022-08-01T09:43:17;24.70;99.90
10722;DHT22;5412;59.450;18.124;2022-08-01T09:45:43;24.70;99.90
10722;DHT22;5412;59.450;18.124;2022-08-01T09:48:09;24.80;99.90
10722;DHT22;5412;59.450;18.124;2022-08-01T09:50:41;24.80;99.90
10722;DHT22;5412;59.450;18.124;2022-08-01T09:53:07;25.00;99.90
10722;DHT22;5412;59.450;18.124;2022-08-01T09:55:33;24.90;99.90
10722;DHT22;5412;59.450;18.124;2022-08-01T09:57:59;25.00;99.90
10722;DHT22;5412;59.450;18.124;2022-08-01T10:00:27;25.00;99.90
10722;DHT22;5412;59.450;18.124;2022-08-01T10:02:52;25.00;99.90
10722;DHT22;5412;59.450;18.124;2022-08-01T10:05:30;25.00;99.90
10722;DHT22;5412;59.450;18.124;2022-08-01T10:07:58;25.00;99.90
10722;DHT22;5412;59.450;18.124;2022-08-01T10:10:24;25.00;99.90
10722;DHT22;5412;59.450;18.124;2022-08-01T10:12:51;25.00;99.90
10722;DHT22;5412;59.450;18.124;2022-08-01T10:15:18;25.20;99.90
10722;DHT22;5412;59.450;18.124;2022-08-01T10:17:52;25.40;99.90
10722;DHT22;5412;59.450;18.124;2022-08-01T10:20:27;25.40;99.90
10722;DHT22;5412;59.450;18.124;2022-08-01T10:22:58;25.40;99.90
10722;DHT22;5412;59.450;18.124;2022-08-01T10:25:31;25.60;99.90
10722;DHT22;5412;59.450;18.124;2022-08-01T10:27:59;25.80;99.90
10722;DHT22;5412;59.450;18.124;2022-08-01T10:30:27;25.90;99.90
10722;DHT22;5412;59.450;18.124;2022-08-01T10:32:54;25.90;99.90
10722;DHT22;5412;59.450;18.124;2022-08-01T10:35:21;25.70;99.90
10722;DHT22;5412;59.450;18.124;2022-08-01T10:37:48;25.60;99.90
10722;DHT22;5412;59.450;18.124;2022-08-01T10:40:16;25.50;99.90
10722;DHT22;5412;59.450;18.124;2022-08-01T10:42:44;25.40;99.90
10722;DHT22;5412;59.450;18.124;2022-08-01T10:45:12;25.20;99.90
10722;DHT22;5412;59.450;18.124;2022-08-01T10:53:11;24.80;99.90
10722;DHT22;5412;59.450;18.124;2022-08-01T10:56:05;24.80;99.90
10722;DHT22;5412;59.450;18.124;2022-08-01T10:58:37;24.80;99.90
10722;DHT22;5412;59.450;18.124;2022-08-01T11:01:24;24.80;99.90
10722;DHT22;5412;59.450;18.124;2022-08-01T11:04:10;24.90;99.90
10722;DHT22;5412;59.450;18.124;2022-08-01T11:06:41;24.10;99.90
10722;DHT22;5412;59.450;18.124;2022-08-01T11:14:22;25.10;99.90
10722;DHT22;5412;59.450;18.124;2022-08-01T11:16:47;25.20;99.90
10722;DHT22;5412;59.450;18.124;2022-08-01T11:19:13;25.20;99.90
10722;DHT22;5412;59.450;18.124;2022-08-01T11:27:21;25.50;99.90
10722;DHT22;5412;59.450;18.124;2022-08-01T11:32:47;26.00;99.90
10722;DHT22;5412;59.450;18.124;2022-08-01T11:35:13;26.20;99.90
10722;DHT22;5412;59.450;18.124;2022-08-01T11:37:39;26.40;99.90
10722;DHT22;5412;59.450;18.124;2022-08-01T11:45:53;26.00;99.90
10722;DHT22;5412;59.450;18.124;2022-08-01T11:48:26;25.90;99.90
10722;DHT22;5412;59.450;18.124;2022-08-01T11:50:55;25.80;99.90
10722;DHT22;5412;59.450;18.124;2022-08-01T11:53:21;25.80;99.90
10722;DHT22;5412;59.450;18.124;2022-08-01T11:55:52;25.70;99.90
10722;DHT22;5412;59.450;18.124;2022-08-01T11:58:23;25.70;99.90
10722;DHT22;5412;59.450;18.124;2022-08-01T12:00:53;25.70;99.90
10722;DHT22;5412;59.450;18.124;2022-08-01T12:03:27;25.70;99.90
10722;DHT22;5412;59.450;18.124;2022-08-01T12:05:55;25.70;99.90
10722;DHT22;5412;59.450;18.124;2022-08-01T12:08:31;25.90;99.90
10722;DHT22;5412;59.450;18.124;2022-08-01T12:11:03;25.60;99.90
10722;DHT22;5412;59.450;18.124;2022-08-01T12:13:40;25.30;99.90
10722;DHT22;5412;59.450;18.124;2022-08-01T12:16:10;25.10;99.90
10722;DHT22;5412;59.450;18.124;2022-08-01T12:18:42;24.80;99.90
10722;DHT22;5412;59.450;18.124;2022-08-01T12:21:08;24.70;99.90
10722;DHT22;5412;59.450;18.124;2022-08-01T12:23:34;24.50;99.90
10722;DHT22;5412;59.450;18.124;2022-08-01T12:25:59;24.40;99.90
10722;DHT22;5412;59.450;18.124;2022-08-01T12:28:27;24.50;99.90
10722;DHT22;5412;59.450;18.124;2022-08-01T12:30:52;24.50;99.90
10722;DHT22;5412;59.450;18.124;2022-08-01T12:33:20;24.50;99.90
10722;DHT22;5412;59.450;18.124;2022-08-01T12:35:46;24.70;99.90
10722;DHT22;5412;59.450;18.124;2022-08-01T12:38:18;24.80;99.90
10722;DHT22;5412;59.450;18.124;2022-08-01T12:40:46;24.80;99.90
10722;DHT22;5412;59.450;18.124;2022-08-01T12:43:21;24.80;99.90
10722;DHT22;5412;59.450;18.124;2022-08-01T12:45:49;24.70;99.90
10722;DHT22;5412;59.450;18.124;2022-08-01T12:48:16;24.60;99.90
10722;DHT22;5412;59.450;18.124;2022-08-01T12:50:45;24.40;99.90
10722;DHT22;5412;59.450;18.124;2022-08-01T12:53:12;24.20;99.90
10722;DHT22;5412;59.450;18.124;2022-08-01T12:58:15;24.10;99.90
10722;DHT22;5412;59.450;18.124;2022-08-01T13:00:44;23.90;99.90
10722;DHT22;5412;59.450;18.124;2022-08-01T13:08:14;23.80;99.90
10722;DHT22;5412;59.450;18.124;2022-08-01T13:10:40;23.80;99.90
10722;DHT22;5412;59.450;18.124;2022-08-01T13:13:07;23.80;99.90
10722;DHT22;5412;59.450;18.124;2022-08-01T13:15:35;23.70;99.90
10722;DHT22;5412;59.450;18.124;2022-08-01T13:18:21;23.70;99.90
10722;DHT22;5412;59.450;18.124;2022-08-01T13:20:48;23.60;99.90
10722;DHT22;5412;59.450;18.124;2022-08-01T13:23:18;23.60;99.90
10722;DHT22;5412;59.450;18.124;2022-08-01T13:25:55;23.70;99.90
10722;DHT22;5412;59.450;18.124;2022-08-01T13:28:22;23.70;99.90
10722;DHT22;5412;59.450;18.124;2022-08-01T13:33:20;23.70;99.90
10722;DHT22;5412;59.450;18.124;2022-08-01T13:35:46;23.70;99.90
10722;DHT22;5412;59.450;18.124;2022-08-01T13:38:13;23.90;99.90
10722;DHT22;5412;59.450;18.124;2022-08-01T13:40:39;24.10;99.90
10722;DHT22;5412;59.450;18.124;2022-08-01T13:43:04;24.60;99.90
10722;DHT22;5412;59.450;18.124;2022-08-01T13:45:30;25.50;99.90
10722;DHT22;5412;59.450;18.124;2022-08-01T13:47:55;25.80;99.90
10722;DHT22;5412;59.450;18.124;2022-08-01T13:50:21;25.90;99.90
10722;DHT22;5412;59.450;18.124;2022-08-01T13:52:47;26.20;99.90
10722;DHT22;5412;59.450;18.124;2022-08-01T13:55:12;26.20;99.90
10722;DHT22;5412;59.450;18.124;2022-08-01T13:57:38;26.50;99.90
10722;DHT22;5412;59.450;18.124;2022-08-01T14:00:05;26.70;99.90
10722;DHT22;5412;59.450;18.124;2022-08-01T14:02:31;27.10;99.90
10722;DHT22;5412;59.450;18.124;2022-08-01T14:04:57;27.30;99.90
10722;DHT22;5412;59.450;18.124;2022-08-01T14:07:24;28.10;99.90
10722;DHT22;5412;59.450;18.124;2022-08-01T14:09:50;28.90;99.90
10722;DHT22;5412;59.450;18.124;2022-08-01T14:12:15;28.90;99.90
10722;DHT22;5412;59.450;18.124;2022-08-01T14:14:41;28.80;99.90
10722;DHT22;5412;59.450;18.124;2022-08-01T14:17:07;28.60;99.90
10722;DHT22;5412;59.450;18.124;2022-08-01T14:19:32;28.80;99.90
10722;DHT22;5412;59.450;18.124;2022-08-01T14:21:58;29.10;99.90
10722;DHT22;5412;59.450;18.124;2022-08-01T14:24:23;29.20;99.50
10722;DHT22;5412;59.450;18.124;2022-08-01T14:26:51;29.10;99.50
10722;DHT22;5412;59.450;18.124;2022-08-01T14:29:17;29.10;99.90
10722;DHT22;5412;59.450;18.124;2022-08-01T14:31:42;29.00;99.70
10722;DHT22;5412;59.450;18.124;2022-08-01T14:34:08;29.20;99.90
10722;DHT22;5412;59.450;18.124;2022-08-01T14:36:34;29.90;98.40
10722;DHT22;5412;59.450;18.124;2022-08-01T14:39:00;29.60;97.50
10722;DHT22;5412;59.450;18.124;2022-08-01T14:41:25;29.40;97.40
10722;DHT22;5412;59.450;18.124;2022-08-01T14:43:51;29.80;97.60
10722;DHT22;5412;59.450;18.124;2022-08-01T14:46:16;29.50;97.70
10722;DHT22;5412;59.450;18.124;2022-08-01T14:48:42;30.10;96.90
10722;DHT22;5412;59.450;18.124;2022-08-01T14:51:08;30.80;95.90
10722;DHT22;5412;59.450;18.124;2022-08-01T14:53:34;30.80;95.50
10722;DHT22;5412;59.450;18.124;2022-08-01T14:56:06;30.30;95.80
10722;DHT22;5412;59.450;18.124;2022-08-01T14:58:32;30.00;95.70
10722;DHT22;5412;59.450;18.124;2022-08-01T15:00:58;30.30;94.90
10722;DHT22;5412;59.450;18.124;2022-08-01T15:03:24;30.80;94.10
10722;DHT22;5412;59.450;18.124;2022-08-01T15:05:49;30.30;93.50
10722;DHT22;5412;59.450;18.124;2022-08-01T15:08:15;29.80;92.30
10722;DHT22;5412;59.450;18.124;2022-08-01T15:10:41;29.70;92.30
10722;DHT22;5412;59.450;18.124;2022-08-01T15:13:06;29.50;92.30
10722;DHT22;5412;59.450;18.124;2022-08-01T15:15:33;30.10;91.50
10722;DHT22;5412;59.450;18.124;2022-08-01T15:17:58;30.40;90.70
10722;DHT22;5412;59.450;18.124;2022-08-01T15:20:24;30.00;91.20
10722;DHT22;5412;59.450;18.124;2022-08-01T15:22:52;29.50;91.20
10722;DHT22;5412;59.450;18.124;2022-08-01T15:25:18;28.80;91.70
10722;DHT22;5412;59.450;18.124;2022-08-01T15:27:44;28.30;91.70
10722;DHT22;5412;59.450;18.124;2022-08-01T15:30:10;28.10;92.00
10722;DHT22;5412;59.450;18.124;2022-08-01T15:32:36;27.60;92.20
10722;DHT22;5412;59.450;18.124;2022-08-01T15:35:02;27.50;93.20
10722;DHT22;5412;59.450;18.124;2022-08-01T15:37:27;27.10;93.50
10722;DHT22;5412;59.450;18.124;2022-08-01T15:39:53;26.80;94.50
10722;DHT22;5412;59.450;18.124;2022-08-01T15:42:18;26.30;95.30
10722;DHT22;5412;59.450;18.124;2022-08-01T15:44:44;26.00;95.70
10722;DHT22;5412;59.450;18.124;2022-08-01T15:47:10;25.60;97.20
10722;DHT22;5412;59.450;18.124;2022-08-01T15:49:37;25.40;98.50
10722;DHT22;5412;59.450;18.124;2022-08-01T15:52:07;25.20;99.30
10722;DHT22;5412;59.450;18.124;2022-08-01T15:54:34;25.00;99.60
10722;DHT22;5412;59.450;18.124;2022-08-01T15:57:00;25.00;99.80
10722;DHT22;5412;59.450;18.124;2022-08-01T15:59:25;25.00;99.50
10722;DHT22;5412;59.450;18.124;2022-08-01T16:01:51;25.00;99.10
10722;DHT22;5412;59.450;18.124;2022-08-01T16:04:17;24.90;99.90
10722;DHT22;5412;59.450;18.124;2022-08-01T16:06:44;24.90;99.90
10722;DHT22;5412;59.450;18.124;2022-08-01T16:09:10;25.20;99.90
10722;DHT22;5412;59.450;18.124;2022-08-01T16:11:35;25.20;99.90
10722;DHT22;5412;59.450;18.124;2022-08-01T16:14:01;25.30;99.90
10722;DHT22;5412;59.450;18.124;2022-08-01T16:16:27;25.30;99.90
10722;DHT22;5412;59.450;18.124;2022-08-01T16:18:53;25.30;99.90
10722;DHT22;5412;59.450;18.124;2022-08-01T16:21:18;25.40;99.90
10722;DHT22;5412;59.450;18.124;2022-08-01T16:23:45;25.30;99.90